createdAt,value
2022-12-04T00:00:01.566Z,26.60
2022-12-04T00:02:28.386Z,28.25
2022-12-04T00:04:55.030Z,29.52
2022-12-04T00:07:21.785Z,28.17
2022-12-04T00:09:48.429Z,26.27
2022-12-04T00:12:15.030Z,24.90
2022-12-04T00:15:16.639Z,31.45
2022-12-04T00:17:28.272Z,27.45
2022-12-04T00:19:55.119Z,24.75
2022-12-04T00:22:22.021Z,27.60
2022-12-04T00:24:48.742Z,23.00
2022-12-04T00:27:15.420Z,27.52
2022-12-04T00:29:42.076Z,27.75
2022-12-04T00:32:08.826Z,28.17
2022-12-04T00:34:35.466Z,29.38
2022-12-04T00:37:02.163Z,28.70
2022-12-04T00:39:28.754Z,27.48
2022-12-04T00:41:55.421Z,24.10
2022-12-04T00:44:22.286Z,27.67
2022-12-04T00:46:48.942Z,26.85
2022-12-04T00:49:15.542Z,25.58
2022-12-04T00:51:42.215Z,29.05
2022-12-04T00:54:08.799Z,29.40
2022-12-04T00:56:35.414Z,27.67
2022-12-04T00:59:02.160Z,25.17
2022-12-04T01:01:29.812Z,25.83
2022-12-04T01:03:56.904Z,26.90
2022-12-04T01:06:29.642Z,24.58
2022-12-04T01:08:57.808Z,24.42
2022-12-04T01:11:26.513Z,28.73
2022-12-04T01:13:53.504Z,27.98
2022-12-04T01:16:23.325Z,28.80
2022-12-04T01:18:50.223Z,24.55
2022-12-04T01:21:17.895Z,26.02
2022-12-04T01:23:44.714Z,23.60
2022-12-04T01:26:11.650Z,24.55
2022-12-04T01:28:38.544Z,27.55
2022-12-04T01:31:08.435Z,25.40
2022-12-04T01:33:36.551Z,26.73
2022-12-04T01:36:05.780Z,27.13
2022-12-04T01:38:33.647Z,23.58
2022-12-04T01:41:00.437Z,28.63
2022-12-04T01:43:29.834Z,24.60
2022-12-04T01:45:58.458Z,25.23
2022-12-04T01:48:35.947Z,26.95
2022-12-04T01:51:24.780Z,25.85
2022-12-04T01:53:59.333Z,26.58
2022-12-04T01:56:42.849Z,23.38
2022-12-04T01:59:12.665Z,26.27
2022-12-04T02:01:46.534Z,26.10
2022-12-04T02:04:13.172Z,25.92
2022-12-04T02:06:39.753Z,30.52
2022-12-04T02:09:06.770Z,26.02
2022-12-04T02:11:39.218Z,24.55
2022-12-04T02:14:24.302Z,23.02
2022-12-04T02:17:00.054Z,22.45
2022-12-04T02:19:54.889Z,23.58
2022-12-04T02:22:21.673Z,27.48
2022-12-04T02:24:57.186Z,21.70
2022-12-04T02:27:38.807Z,23.95
2022-12-04T02:30:11.769Z,23.70
2022-12-04T02:33:05.339Z,23.00
2022-12-04T02:35:47.155Z,21.75
2022-12-04T02:38:16.421Z,26.20
2022-12-04T02:40:58.965Z,22.58
2022-12-04T02:43:48.981Z,22.38
2022-12-04T02:46:24.877Z,23.42
2022-12-04T02:48:56.917Z,20.38
2022-12-04T02:51:28.414Z,20.85
2022-12-04T02:54:00.102Z,20.23
2022-12-04T02:56:30.745Z,23.65
2022-12-04T02:59:02.401Z,21.27
2022-12-04T03:01:34.973Z,20.13
2022-12-04T03:04:11.592Z,20.48
2022-12-04T03:06:42.386Z,25.08
2022-12-04T03:09:19.983Z,22.70
2022-12-04T03:11:52.491Z,22.63
2022-12-04T03:14:34.864Z,23.33
2022-12-04T03:17:06.439Z,24.48
2022-12-04T03:19:44.915Z,24.10
2022-12-04T03:22:17.376Z,24.20
2022-12-04T03:24:50.732Z,25.27
2022-12-04T03:27:20.387Z,18.33
2022-12-04T03:29:57.709Z,20.50
2022-12-04T03:32:24.465Z,17.08
2022-12-04T03:35:21.492Z,23.65
2022-12-04T03:38:00.530Z,18.40
2022-12-04T03:40:37.592Z,20.90
2022-12-04T03:43:16.482Z,23.02
2022-12-04T03:45:52.758Z,22.60
2022-12-04T03:48:37.120Z,18.67
2022-12-04T03:51:18.352Z,20.40
2022-12-04T03:53:56.711Z,21.30
2022-12-04T03:56:28.442Z,22.17
2022-12-04T03:59:00.250Z,21.80
2022-12-04T04:01:39.305Z,24.60
2022-12-04T04:04:10.260Z,22.52
2022-12-04T04:06:43.794Z,23.67
2022-12-04T04:09:15.123Z,22.00
2022-12-04T04:11:49.915Z,22.10
2022-12-04T04:14:44.659Z,23.05
2022-12-04T04:17:38.420Z,22.67
2022-12-04T04:20:32.181Z,21.02
2022-12-04T04:23:20.196Z,20.35
2022-12-04T04:25:47.434Z,22.58
2022-12-04T04:28:37.406Z,23.60
2022-12-04T04:31:13.173Z,21.55
2022-12-04T04:33:54.179Z,22.40
2022-12-04T04:36:52.675Z,24.50
2022-12-04T04:39:34.546Z,21.52
2022-12-04T04:42:36.153Z,23.58
2022-12-04T04:45:13.630Z,23.98
2022-12-04T04:48:02.263Z,22.83
2022-12-04T04:50:30.152Z,22.05
2022-12-04T04:53:02.343Z,21.05
2022-12-04T04:55:34.346Z,21.40
2022-12-04T04:58:16.253Z,21.13
2022-12-04T05:01:03.123Z,19.40
2022-12-04T05:03:30.556Z,23.92
2022-12-04T05:05:57.836Z,24.20
2022-12-04T05:08:24.644Z,24.10
2022-12-04T05:10:51.362Z,27.33
2022-12-04T05:13:18.884Z,22.20
2022-12-04T05:15:45.747Z,23.23
2022-12-04T05:18:12.475Z,23.05
2022-12-04T05:20:40.284Z,23.58
2022-12-04T05:23:07.363Z,22.40
2022-12-04T05:25:34.115Z,26.20
2022-12-04T05:28:00.770Z,22.10
2022-12-04T05:30:27.414Z,21.65
2022-12-04T05:32:54.129Z,21.90
2022-12-04T05:35:20.793Z,22.40
2022-12-04T05:37:47.549Z,26.00
2022-12-04T05:40:14.356Z,21.25
2022-12-04T05:42:41.101Z,20.85
2022-12-04T05:45:08.038Z,17.40
2022-12-04T05:47:42.671Z,20.58
2022-12-04T05:50:12.093Z,20.15
2022-12-04T05:52:38.999Z,23.00
2022-12-04T05:55:06.119Z,20.27
2022-12-04T05:57:32.746Z,19.92
2022-12-04T05:59:59.472Z,20.73
2022-12-04T06:02:26.148Z,24.55
2022-12-04T06:04:52.763Z,21.42
2022-12-04T06:07:19.474Z,19.40
2022-12-04T06:09:46.126Z,18.05
2022-12-04T06:12:12.786Z,21.42
2022-12-04T06:14:40.072Z,20.60
2022-12-04T06:17:07.209Z,18.88
2022-12-04T06:19:33.943Z,22.55
2022-12-04T06:22:00.614Z,21.25
2022-12-04T06:24:27.289Z,19.55
2022-12-04T06:29:47.347Z,18.75
2022-12-04T06:32:19.475Z,22.15
2022-12-04T06:34:51.662Z,19.38
2022-12-04T06:37:18.532Z,18.02
2022-12-04T06:39:45.267Z,20.67
2022-12-04T06:42:11.998Z,20.08
2022-12-04T06:44:38.750Z,21.52
2022-12-04T06:47:05.619Z,19.70
2022-12-04T06:49:32.323Z,18.75
2022-12-04T06:51:58.888Z,19.80
2022-12-04T06:54:26.160Z,19.10
2022-12-04T06:56:52.820Z,17.88
2022-12-04T06:59:19.523Z,17.25
2022-12-04T07:01:46.233Z,20.23
2022-12-04T07:04:13.119Z,20.80
2022-12-04T07:06:40.200Z,20.58
2022-12-04T07:09:10.535Z,20.83
2022-12-04T07:11:38.419Z,19.02
2022-12-04T07:14:05.149Z,20.73
2022-12-04T07:16:36.880Z,19.35
2022-12-04T07:19:07.661Z,22.40
2022-12-04T07:21:34.824Z,19.77
2022-12-04T07:24:02.313Z,19.05
2022-12-04T07:26:29.940Z,20.90
2022-12-04T07:28:57.785Z,28.60
2022-12-04T07:31:26.707Z,28.10
2022-12-04T07:33:55.337Z,23.98
2022-12-04T07:36:23.369Z,20.45
2022-12-04T07:38:51.137Z,22.55
2022-12-04T07:41:18.945Z,21.92
2022-12-04T07:43:45.957Z,20.23
2022-12-04T07:46:26.585Z,21.08
2022-12-04T07:48:56.620Z,20.42
2022-12-04T07:51:26.638Z,21.33
2022-12-04T07:53:54.351Z,20.35
2022-12-04T07:56:21.442Z,20.38
2022-12-04T07:58:48.229Z,18.23
2022-12-04T08:01:21.017Z,19.88
2022-12-04T08:03:49.914Z,21.33
2022-12-04T08:06:18.788Z,17.95
2022-12-04T08:08:46.302Z,20.38
2022-12-04T08:11:15.361Z,19.27
2022-12-04T08:13:42.087Z,19.70
2022-12-04T08:16:10.653Z,19.20
2022-12-04T08:18:37.598Z,20.27
2022-12-04T08:21:09.942Z,19.60
2022-12-04T08:23:37.172Z,19.80
2022-12-04T08:26:05.007Z,18.98
2022-12-04T08:28:32.842Z,20.25
2022-12-04T08:31:12.754Z,19.40
2022-12-04T08:33:40.992Z,21.77
2022-12-04T08:36:10.036Z,20.20
2022-12-04T08:38:36.896Z,26.95
2022-12-04T08:41:06.210Z,22.70
2022-12-04T08:43:33.179Z,22.17
2022-12-04T08:46:02.695Z,20.70
2022-12-04T08:48:29.606Z,19.00
2022-12-04T08:50:56.800Z,22.23
2022-12-04T08:53:23.770Z,23.00
2022-12-04T08:55:51.335Z,23.88
2022-12-04T08:58:19.300Z,25.45
2022-12-04T09:00:46.243Z,22.63
2022-12-04T09:03:14.791Z,25.02
2022-12-04T09:05:43.281Z,30.02
2022-12-04T09:08:09.912Z,21.75
2022-12-04T09:10:36.981Z,32.63
2022-12-04T09:13:03.916Z,22.33
2022-12-04T09:15:30.964Z,26.73
2022-12-04T09:17:58.317Z,21.05
2022-12-04T09:20:25.292Z,21.75
2022-12-04T09:23:04.037Z,23.58
2022-12-04T09:25:34.602Z,24.60
2022-12-04T09:28:01.254Z,20.23
2022-12-04T09:30:27.846Z,21.95
2022-12-04T09:32:54.552Z,22.10
2022-12-04T09:35:21.152Z,20.00
2022-12-04T09:37:47.724Z,21.55
2022-12-04T09:40:52.923Z,22.90
2022-12-04T09:43:39.042Z,18.60
2022-12-04T09:46:14.993Z,16.10
2022-12-04T09:48:44.339Z,19.38
2022-12-04T09:51:18.801Z,20.17
2022-12-04T09:53:47.284Z,19.75
2022-12-04T09:56:19.716Z,21.55
2022-12-04T09:59:03.037Z,20.60
2022-12-04T10:02:10.414Z,20.65
2022-12-04T10:04:37.100Z,21.25
2022-12-04T10:07:27.189Z,17.98
2022-12-04T10:10:13.199Z,21.25
2022-12-04T10:13:21.338Z,22.30
2022-12-04T10:16:22.683Z,19.75
2022-12-04T10:19:09.076Z,21.20
2022-12-04T10:22:14.226Z,19.90
2022-12-04T10:24:49.363Z,21.77
2022-12-04T10:27:24.131Z,26.45
2022-12-04T10:29:57.233Z,28.55
2022-12-04T10:32:27.445Z,24.50
2022-12-04T10:34:58.304Z,20.25
2022-12-04T10:37:26.519Z,21.85
2022-12-04T10:40:03.020Z,21.15
2022-12-04T10:42:46.947Z,25.67
2022-12-04T10:45:13.559Z,24.67
2022-12-04T10:47:44.651Z,25.88
2022-12-04T10:50:20.679Z,33.33
2022-12-04T10:52:48.087Z,30.90
2022-12-04T10:55:15.307Z,27.70
2022-12-04T10:57:44.721Z,33.47
2022-12-04T11:00:27.906Z,40.13
2022-12-04T11:02:57.504Z,35.30
2022-12-04T11:05:43.771Z,37.60
2022-12-04T11:08:24.279Z,26.27
2022-12-04T11:11:12.480Z,30.23
2022-12-04T11:13:39.806Z,30.73
2022-12-04T11:16:07.404Z,31.83
2022-12-04T11:18:46.140Z,30.63
2022-12-04T11:21:22.822Z,28.75
2022-12-04T11:23:51.807Z,31.77
2022-12-04T11:26:30.903Z,34.40
2022-12-04T11:29:01.395Z,33.17
2022-12-04T11:31:30.628Z,33.70
2022-12-04T11:34:14.471Z,30.60
2022-12-04T11:36:41.925Z,25.73
2022-12-04T11:39:11.695Z,31.40
2022-12-04T11:41:38.886Z,42.58
2022-12-04T11:44:06.751Z,35.90
2022-12-04T11:46:34.503Z,34.30
2022-12-04T11:49:03.326Z,32.58
2022-12-04T11:51:50.775Z,27.95
2022-12-04T11:54:55.732Z,29.15
2022-12-04T11:57:47.482Z,31.48
2022-12-04T12:00:19.655Z,28.98
2022-12-04T12:03:12.576Z,28.27
2022-12-04T12:05:57.523Z,36.43
2022-12-04T12:09:01.628Z,30.08
2022-12-04T12:11:51.859Z,30.10
2022-12-04T12:14:36.834Z,31.33
2022-12-04T12:17:23.529Z,32.00
2022-12-04T12:20:15.509Z,39.63
2022-12-04T12:22:57.238Z,61.45
2022-12-04T12:25:58.485Z,28.27
2022-12-04T12:28:45.423Z,29.23
2022-12-04T12:31:42.941Z,32.25
2022-12-04T12:34:39.298Z,31.73
2022-12-04T12:37:30.787Z,30.13
2022-12-04T12:40:06.041Z,33.38
2022-12-04T12:42:39.100Z,25.85
2022-12-04T12:45:39.681Z,29.13
2022-12-04T12:48:28.587Z,27.92
2022-12-04T12:51:28.426Z,27.25
2022-12-04T12:53:55.712Z,26.85
2022-12-04T12:56:33.848Z,39.55
2022-12-04T12:59:05.312Z,28.55
2022-12-04T13:02:01.011Z,26.38
2022-12-04T13:04:48.445Z,28.08
2022-12-04T13:07:15.056Z,30.08
2022-12-04T13:09:46.340Z,28.80
2022-12-04T13:12:15.749Z,28.83
2022-12-04T13:14:47.422Z,33.88
2022-12-04T13:17:27.722Z,36.35
2022-12-04T13:19:58.246Z,36.40
2022-12-04T13:22:51.925Z,32.38
2022-12-04T13:25:39.912Z,28.42
2022-12-04T13:28:22.643Z,29.73
2022-12-04T13:31:01.193Z,30.20
2022-12-04T13:34:10.367Z,32.72
2022-12-04T13:36:49.112Z,32.08
2022-12-04T13:39:30.527Z,32.15
2022-12-04T13:42:03.298Z,28.93
2022-12-04T13:44:32.490Z,36.08
2022-12-04T13:47:00.152Z,36.33
2022-12-04T13:49:30.742Z,35.47
2022-12-04T13:51:59.523Z,31.30
2022-12-04T13:54:36.747Z,35.10
2022-12-04T13:57:12.450Z,35.10
2022-12-04T13:59:40.090Z,37.28
2022-12-04T14:02:24.408Z,36.22
2022-12-04T14:05:05.421Z,32.30
2022-12-04T14:07:37.320Z,32.88
2022-12-04T14:10:09.060Z,30.00
2022-12-04T14:12:39.812Z,32.10
2022-12-04T14:15:28.952Z,33.53
2022-12-04T14:18:06.556Z,33.22
2022-12-04T14:20:35.038Z,33.40
2022-12-04T14:23:07.600Z,34.67
2022-12-04T14:25:38.008Z,32.08
2022-12-04T14:28:34.965Z,30.15
2022-12-04T14:31:08.041Z,27.65
2022-12-04T14:33:55.148Z,31.88
2022-12-04T14:36:28.161Z,29.98
2022-12-04T14:39:29.767Z,32.88
2022-12-04T14:42:27.836Z,31.27
2022-12-04T14:44:58.520Z,32.08
2022-12-04T14:47:36.359Z,34.50
2022-12-04T14:50:40.115Z,33.75
2022-12-04T14:53:17.037Z,41.75
2022-12-04T14:56:31.998Z,44.03
2022-12-04T14:59:04.834Z,37.55
2022-12-04T15:01:37.471Z,33.38
2022-12-04T15:04:22.186Z,33.85
2022-12-04T15:06:54.252Z,39.22
2022-12-04T15:09:44.516Z,36.45
2022-12-04T15:12:35.593Z,40.53
2022-12-04T15:15:25.678Z,38.90
2022-12-04T15:17:59.177Z,41.75
2022-12-04T15:20:27.255Z,36.83
2022-12-04T15:22:57.422Z,35.95
2022-12-04T15:25:41.119Z,40.75
2022-12-04T15:28:46.408Z,40.97
2022-12-04T15:31:19.062Z,37.88
2022-12-04T15:33:48.939Z,43.92
2022-12-04T15:36:34.214Z,40.33
2022-12-04T15:39:02.540Z,43.17
2022-12-04T15:41:37.000Z,36.45
2022-12-04T15:44:21.558Z,39.97
2022-12-04T15:46:48.413Z,43.97
2022-12-04T15:49:18.995Z,39.45
2022-12-04T15:51:47.719Z,42.45
2022-12-04T15:54:26.025Z,45.90
2022-12-04T15:57:14.118Z,39.28
2022-12-04T15:59:40.893Z,37.85
2022-12-04T16:02:25.806Z,36.83
2022-12-04T16:04:52.526Z,38.22
2022-12-04T16:07:26.526Z,39.40
2022-12-04T16:10:02.873Z,39.55
2022-12-04T16:12:32.073Z,36.30
2022-12-04T16:14:58.870Z,33.08
2022-12-04T16:17:33.993Z,34.67
2022-12-04T16:20:03.956Z,39.17
2022-12-04T16:22:31.469Z,33.88
2022-12-04T16:24:58.371Z,38.95
2022-12-04T16:27:25.763Z,38.17
2022-12-04T16:29:53.151Z,37.05
2022-12-04T16:32:22.449Z,39.30
2022-12-04T16:34:49.539Z,31.17
2022-12-04T16:37:19.262Z,33.78
2022-12-04T16:39:46.319Z,34.45
2022-12-04T16:42:30.477Z,32.58
2022-12-04T16:44:58.190Z,34.33
2022-12-04T16:47:25.249Z,34.88
2022-12-04T16:49:53.270Z,32.47
2022-12-04T16:52:20.786Z,36.70
2022-12-04T16:54:47.557Z,36.67
2022-12-04T16:57:14.188Z,31.38
2022-12-04T16:59:40.840Z,33.97
2022-12-04T17:02:15.987Z,32.72
2022-12-04T17:04:42.905Z,31.92
2022-12-04T17:07:09.661Z,31.92
2022-12-04T17:09:36.325Z,31.27
2022-12-04T17:12:02.941Z,33.75
2022-12-04T17:14:29.644Z,38.63
2022-12-04T17:16:58.628Z,35.38
2022-12-04T17:19:25.261Z,29.17
2022-12-04T17:21:51.904Z,27.58
2022-12-04T17:24:18.522Z,29.13
2022-12-04T17:26:45.161Z,34.83
2022-12-04T17:29:11.823Z,34.80
2022-12-04T17:31:38.605Z,30.63
2022-12-04T17:34:05.340Z,31.17
2022-12-04T17:36:32.122Z,28.27
2022-12-04T17:39:01.503Z,33.45
2022-12-04T17:41:28.445Z,33.13
2022-12-04T17:43:55.076Z,27.98
2022-12-04T17:46:24.447Z,32.25
2022-12-04T17:48:52.051Z,35.13
2022-12-04T17:51:23.631Z,43.00
2022-12-04T17:53:51.186Z,38.03
2022-12-04T17:56:20.429Z,32.38
2022-12-04T17:58:48.383Z,35.53
2022-12-04T18:01:17.884Z,33.97
2022-12-04T18:03:52.639Z,34.67
2022-12-04T18:06:22.936Z,36.15
2022-12-04T18:08:50.367Z,39.78
2022-12-04T18:11:20.572Z,32.80
2022-12-04T18:13:56.691Z,30.70
2022-12-04T18:16:24.644Z,30.40
2022-12-04T18:18:55.534Z,70.15
2022-12-04T18:21:22.825Z,75.35
2022-12-04T18:23:49.992Z,65.05
2022-12-04T18:26:19.414Z,30.67
2022-12-04T18:28:46.855Z,37.38
2022-12-04T18:31:14.926Z,32.03
2022-12-04T18:33:42.415Z,32.58
2022-12-04T18:36:14.877Z,27.45
2022-12-04T18:38:41.779Z,28.30
2022-12-04T18:41:11.410Z,32.65
2022-12-04T18:43:40.821Z,35.70
2022-12-04T18:46:11.736Z,41.35
2022-12-04T18:48:40.345Z,33.50
2022-12-04T18:51:15.480Z,37.15
2022-12-04T18:53:42.376Z,38.85
2022-12-04T18:56:09.070Z,29.00
2022-12-04T18:58:35.803Z,29.38
2022-12-04T19:01:10.936Z,33.90
2022-12-04T19:03:38.389Z,30.52
2022-12-04T19:06:05.537Z,37.55
2022-12-04T19:08:34.302Z,31.17
2022-12-04T19:11:11.617Z,33.97
2022-12-04T19:13:38.748Z,28.83
2022-12-04T19:16:11.437Z,28.38
2022-12-04T19:18:38.137Z,30.30
2022-12-04T19:21:06.185Z,25.25
2022-12-04T19:23:32.808Z,27.10
2022-12-04T19:26:00.784Z,26.10
2022-12-04T19:28:27.839Z,27.48
2022-12-04T19:30:55.245Z,33.47
2022-12-04T19:33:24.078Z,30.10
2022-12-04T19:36:17.172Z,29.67
2022-12-04T19:38:44.270Z,37.53
2022-12-04T19:41:13.932Z,32.80
2022-12-04T19:43:43.547Z,28.63
2022-12-04T19:46:12.427Z,68.90
2022-12-04T19:48:39.276Z,26.58
2022-12-04T19:51:08.740Z,24.87
2022-12-04T19:53:40.640Z,25.30
2022-12-04T19:56:10.561Z,26.63
2022-12-04T19:58:37.528Z,26.35
2022-12-04T20:01:06.744Z,23.92
2022-12-04T20:03:35.011Z,25.55
2022-12-04T20:06:06.870Z,27.73
2022-12-04T20:08:34.697Z,25.52
2022-12-04T20:11:20.045Z,36.13
2022-12-04T20:13:47.864Z,27.65
2022-12-04T20:16:18.508Z,27.33
2022-12-04T20:18:45.783Z,25.33
2022-12-04T20:21:13.736Z,27.58
2022-12-04T20:23:51.145Z,25.00
2022-12-04T20:26:20.991Z,30.95
2022-12-04T20:28:47.825Z,34.58
2022-12-04T20:31:19.304Z,35.20
2022-12-04T20:33:48.256Z,36.65
2022-12-04T20:36:16.169Z,34.63
2022-12-04T20:38:42.879Z,32.00
2022-12-04T20:41:13.282Z,25.20
2022-12-04T20:43:40.022Z,26.17
2022-12-04T20:46:34.912Z,25.13
2022-12-04T20:49:04.291Z,28.63
2022-12-04T20:51:37.518Z,26.67
2022-12-04T20:54:05.195Z,25.10
2022-12-04T20:56:35.163Z,29.42
2022-12-04T20:59:08.179Z,25.77
2022-12-04T21:01:35.746Z,33.78
2022-12-04T21:04:04.010Z,39.70
2022-12-04T21:06:35.085Z,27.95
2022-12-04T21:09:08.013Z,39.63
2022-12-04T21:11:37.431Z,44.17
2022-12-04T21:14:25.704Z,33.03
2022-12-04T21:16:52.402Z,30.75
2022-12-04T21:19:20.961Z,37.17
2022-12-04T21:21:48.360Z,30.77
2022-12-04T21:24:18.735Z,34.47
2022-12-04T21:26:45.548Z,35.42
2022-12-04T21:29:12.194Z,33.97
2022-12-04T21:31:39.411Z,39.97
2022-12-04T21:34:08.302Z,33.08
2022-12-04T21:36:34.949Z,35.15
2022-12-04T21:39:01.923Z,33.80
2022-12-04T21:41:47.124Z,30.80
2022-12-04T21:44:17.030Z,34.17
2022-12-04T21:46:44.700Z,31.13
2022-12-04T21:49:12.480Z,31.77
2022-12-04T21:51:56.803Z,32.45
2022-12-04T21:54:24.341Z,32.92
2022-12-04T21:56:50.976Z,31.45
2022-12-04T21:59:18.817Z,39.58
2022-12-04T22:01:45.984Z,42.75
2022-12-04T22:04:12.793Z,43.75
2022-12-04T22:06:39.570Z,40.03
2022-12-04T22:09:07.745Z,46.67
2022-12-04T22:11:34.481Z,34.85
2022-12-04T22:14:01.193Z,32.28
2022-12-04T22:16:30.702Z,40.45
2022-12-04T22:18:58.868Z,33.70
2022-12-04T22:21:26.969Z,34.83
2022-12-04T22:23:58.123Z,34.65
2022-12-04T22:26:25.192Z,46.00
2022-12-04T22:28:52.062Z,36.85
2022-12-04T22:31:22.008Z,33.67
2022-12-04T22:33:51.195Z,33.45
2022-12-04T22:36:20.682Z,35.55
2022-12-04T22:39:08.284Z,32.47
2022-12-04T22:41:35.334Z,35.47
2022-12-04T22:44:02.016Z,37.53
2022-12-04T22:46:28.839Z,32.92
2022-12-04T22:48:55.535Z,31.52
2022-12-04T22:51:22.831Z,30.95
2022-12-04T22:53:54.743Z,31.45
2022-12-04T22:56:24.183Z,29.92
2022-12-04T22:58:51.355Z,26.98
2022-12-04T23:01:22.333Z,27.00
2022-12-04T23:03:50.146Z,29.70
2022-12-04T23:06:18.552Z,27.42
2022-12-04T23:08:46.157Z,24.63
2022-12-04T23:11:16.600Z,27.40
2022-12-04T23:13:44.481Z,29.02
2022-12-04T23:16:15.559Z,27.05
2022-12-04T23:18:45.089Z,29.50
2022-12-04T23:21:14.012Z,29.85
2022-12-04T23:23:42.722Z,29.38
2022-12-04T23:26:12.443Z,25.55
2022-12-04T23:28:39.431Z,25.60
2022-12-04T23:31:06.491Z,24.27
2022-12-04T23:33:33.499Z,24.88
2022-12-04T23:36:01.533Z,23.50
2022-12-04T23:38:29.728Z,25.35
2022-12-04T23:41:17.859Z,20.75
2022-12-04T23:43:45.621Z,22.13
2022-12-04T23:46:14.490Z,24.98
2022-12-04T23:48:42.956Z,23.38
2022-12-04T23:51:10.776Z,21.65
2022-12-04T23:53:37.709Z,21.88
2022-12-04T23:56:13.376Z,23.88
2022-12-04T23:58:41.517Z,23.23
